createdAt,value
2017-03-07T00:07:13.626Z,999.81
2017-03-07T00:17:13.651Z,999.91
2017-03-07T00:27:13.645Z,1000.02
2017-03-07T00:37:13.726Z,1000.12
2017-03-07T00:47:13.685Z,1000.21
2017-03-07T00:57:13.653Z,1000.28
2017-03-07T01:07:13.613Z,1000.37
2017-03-07T01:17:13.634Z,1000.48
2017-03-07T01:27:13.629Z,1000.55
2017-03-07T01:37:13.685Z,1000.57
2017-03-07T01:47:13.610Z,1000.67
2017-03-07T01:57:13.611Z,1000.71
2017-03-07T02:07:13.678Z,1000.93
2017-03-07T02:17:13.639Z,1001.13
2017-03-07T02:27:13.596Z,1001.12
2017-03-07T02:37:13.654Z,1001.23
2017-03-07T02:47:13.603Z,1001.25
2017-03-07T02:57:13.676Z,1001.38
2017-03-07T03:07:13.598Z,1001.57
2017-03-07T03:17:13.603Z,1001.65
2017-03-07T03:27:13.669Z,1001.72
2017-03-07T03:37:13.605Z,1001.78
2017-03-07T03:47:13.591Z,1001.95
2017-03-07T03:57:13.608Z,1002.03
2017-03-07T04:07:13.578Z,1002.13
2017-03-07T04:17:13.669Z,1002.26
2017-03-07T04:27:13.604Z,1002.32
2017-03-07T04:37:13.592Z,1002.43
2017-03-07T04:47:13.655Z,1002.48
2017-03-07T04:57:13.593Z,1002.53
2017-03-07T05:07:13.687Z,1002.61
2017-03-07T05:17:13.581Z,1002.7
2017-03-07T05:27:13.571Z,1002.77
2017-03-07T05:37:13.585Z,1002.88
2017-03-07T05:47:13.580Z,1003
2017-03-07T05:57:13.579Z,1003.17
2017-03-07T06:07:13.561Z,1003.32
2017-03-07T06:17:13.688Z,1003.45
2017-03-07T06:27:13.670Z,1003.63
2017-03-07T06:37:13.558Z,1003.79
2017-03-07T06:47:13.554Z,1003.86
2017-03-07T06:57:13.763Z,1003.98
2017-03-07T07:07:13.551Z,1004.07
2017-03-07T07:17:13.547Z,1004.13
2017-03-07T07:27:13.547Z,1004.32
2017-03-07T07:37:13.561Z,1004.55
2017-03-07T07:47:13.661Z,1004.69
2017-03-07T07:57:13.546Z,1004.77
2017-03-07T08:07:13.548Z,1004.87
2017-03-07T08:17:13.648Z,1005.06
2017-03-07T08:27:13.569Z,1005.09
2017-03-07T08:37:13.685Z,1005.15
2017-03-07T08:47:13.830Z,1005.22
2017-03-07T08:57:13.667Z,1005.33
2017-03-07T09:07:13.534Z,1005.4
2017-03-07T09:17:13.555Z,1005.51
2017-03-07T09:27:13.641Z,1005.52
2017-03-07T09:37:13.520Z,1005.56
2017-03-07T09:47:13.562Z,1005.57
2017-03-07T09:57:13.569Z,1005.7
2017-03-07T10:07:13.592Z,1005.86
2017-03-07T10:17:13.532Z,1005.89
2017-03-07T10:27:13.617Z,1005.9
2017-03-07T10:37:14.370Z,1005.99
2017-03-07T10:47:13.637Z,1006.17
2017-03-07T10:57:13.528Z,1006.17
2017-03-07T11:07:13.565Z,1006.21
2017-03-07T11:17:13.621Z,1006.23
2017-03-07T11:27:13.534Z,1006.26
2017-03-07T11:37:13.645Z,1006.27
2017-03-07T11:47:13.526Z,1006.39
2017-03-07T11:57:13.605Z,1006.51
2017-03-07T12:07:13.643Z,1006.6
2017-03-07T12:17:13.536Z,1006.61
2017-03-07T12:27:13.552Z,1006.68
2017-03-07T12:37:13.614Z,1006.73
2017-03-07T12:47:13.558Z,1006.86
2017-03-07T12:57:13.663Z,1006.95
2017-03-07T13:07:13.522Z,1006.92
2017-03-07T13:17:13.560Z,1006.94
2017-03-07T13:27:13.517Z,1006.93
2017-03-07T13:37:13.523Z,1007.18
2017-03-07T13:47:13.539Z,1007.48
2017-03-07T13:57:13.597Z,1007.49
2017-03-07T14:07:13.570Z,1007.52
2017-03-07T14:17:13.643Z,1007.61
2017-03-07T14:27:13.603Z,1007.62
2017-03-07T14:37:13.591Z,1007.61
2017-03-07T14:47:13.624Z,1007.66
2017-03-07T14:57:13.587Z,1007.75
2017-03-07T15:07:13.505Z,1007.78
2017-03-07T15:17:13.519Z,1007.77
2017-03-07T15:27:13.561Z,1007.94
2017-03-07T15:37:13.667Z,1007.84
2017-03-07T15:47:13.538Z,1007.94
2017-03-07T15:57:13.512Z,1008.02
2017-03-07T16:07:13.617Z,1008.1
2017-03-07T16:17:13.510Z,1008.11
2017-03-07T16:27:13.507Z,1008.22
2017-03-07T16:37:13.516Z,1008.37
2017-03-07T16:47:13.536Z,1008.54
2017-03-07T16:57:13.522Z,1008.58
2017-03-07T17:07:13.499Z,1008.76
2017-03-07T17:17:13.494Z,1008.95
2017-03-07T17:27:13.509Z,1009.13
2017-03-07T17:37:13.569Z,1009.4
2017-03-07T17:47:13.537Z,1009.57
2017-03-07T17:57:13.492Z,1009.74
2017-03-07T18:07:13.494Z,1009.89
2017-03-07T18:17:13.510Z,1009.93
2017-03-07T18:27:13.496Z,1009.89
2017-03-07T18:37:13.495Z,1009.87
2017-03-07T18:47:13.484Z,1010
2017-03-07T18:57:13.499Z,1010.06
2017-03-07T19:07:13.480Z,1010.11
2017-03-07T19:17:13.474Z,1010.21
2017-03-07T19:27:13.489Z,1010.24
2017-03-07T19:37:13.473Z,1010.33
2017-03-07T19:47:13.466Z,1010.46
2017-03-07T19:57:13.481Z,1010.55
2017-03-07T20:07:13.479Z,1010.74
2017-03-07T20:17:13.475Z,1010.96
2017-03-07T20:27:13.479Z,1011.17
2017-03-07T20:37:13.500Z,1011.38
2017-03-07T20:47:13.467Z,1011.43
2017-03-07T20:57:13.476Z,1011.49
2017-03-07T21:07:13.475Z,1011.38
2017-03-07T21:17:13.476Z,1011.42
2017-03-07T21:27:13.469Z,1011.47
2017-03-07T21:37:13.473Z,1011.53
2017-03-07T21:47:13.518Z,1011.7
2017-03-07T21:57:13.478Z,1011.79
2017-03-07T22:07:13.526Z,1011.93
2017-03-07T22:17:13.551Z,1012.06
2017-03-07T22:27:13.455Z,1012.25
2017-03-07T22:37:13.535Z,1012.34
2017-03-07T22:47:13.572Z,1012.35
2017-03-07T22:57:13.444Z,1012.43
2017-03-07T23:07:13.488Z,1012.46
2017-03-07T23:17:13.567Z,1012.41
2017-03-07T23:27:13.433Z,1012.2
2017-03-07T23:37:13.438Z,1012.05
2017-03-07T23:47:13.504Z,1011.91
2017-03-07T23:57:13.427Z,1011.55
